Time;durP1;ratioP1;P1;durP2;ratioP2;P2;SDS_P1;SDS_P2;PMS_P1;PMS_P2;Temp;Humidity;BMP_temperature;BMP_pressure;BME280_temperature;BME280_humidity;BME280_pressure;Samples;Min_cycle;Max_cycle;Signal;HPM_P1;HPM_P2
2023/03/01 00:00:04;;;;;;;1517.30;999.90;;;-0.60;99.90;;;;;;5088759;28;20670;-50
2023/03/01 00:02:32;;;;;;;1468.47;999.90;;;-0.70;99.90;;;;;;5073587;28;20239;-49
2023/03/01 00:05:00;;;;;;;1319.07;999.90;;;-0.60;99.90;;;;;;5078408;28;20226;-50
2023/03/01 00:07:28;;;;;;;1999.90;999.90;;;-0.70;99.90;;;;;;5082338;28;20745;-50
2023/03/01 00:09:56;;;;;;;1214.97;999.90;;;-0.70;99.90;;;;;;5089230;28;20228;-50
2023/03/01 00:12:24;;;;;;;1331.97;999.90;;;-0.70;99.90;;;;;;5089418;28;20212;-49
2023/03/01 00:14:53;;;;;;;1565.67;999.90;;;-0.70;99.90;;;;;;5089283;28;20204;-50
2023/03/01 00:17:21;;;;;;;1192.73;999.90;;;-0.80;99.90;;;;;;5068538;28;20843;-49
2023/03/01 00:19:49;;;;;;;1511.73;999.90;;;-0.70;99.90;;;;;;5079516;28;20309;-50
2023/03/01 00:22:17;;;;;;;1479.80;999.90;;;-0.70;99.90;;;;;;5069181;28;20206;-49
2023/03/01 00:24:45;;;;;;;1999.90;999.90;;;-0.70;99.90;;;;;;5087332;28;20654;-50
2023/03/01 00:27:13;;;;;;;1438.47;999.90;;;-0.70;99.90;;;;;;5074784;28;20284;-49
2023/03/01 00:29:41;;;;;;;1999.90;999.90;;;-0.70;99.90;;;;;;5073836;28;20232;-49
2023/03/01 00:32:11;;;;;;;1647.57;999.90;;;-0.70;99.90;;;;;;5089926;28;20295;-50
2023/03/01 00:34:39;;;;;;;1520.97;999.90;;;-0.70;99.90;;;;;;5083955;28;20586;-50
2023/03/01 00:37:07;;;;;;;1430.50;999.90;;;-0.70;99.90;;;;;;5077579;28;20256;-49
2023/03/01 00:39:35;;;;;;;1994.90;999.90;;;-0.70;99.90;;;;;;5093012;28;20238;-51
2023/03/01 00:42:03;;;;;;;1563.80;999.90;;;-0.70;99.90;;;;;;5089400;28;20219;-49
2023/03/01 00:44:31;;;;;;;1999.90;999.90;;;-0.80;99.90;;;;;;5092982;28;20206;-51
2023/03/01 00:46:59;;;;;;;1955.97;999.90;;;-0.80;99.90;;;;;;5093154;28;20244;-49
2023/03/01 00:49:28;;;;;;;1999.90;999.90;;;-0.90;99.90;;;;;;5087648;28;20652;-50
2023/03/01 00:51:56;;;;;;;1507.37;999.90;;;-0.90;99.90;;;;;;5082206;28;20293;-50
2023/03/01 00:54:24;;;;;;;1686.57;999.90;;;-0.90;99.90;;;;;;5090321;28;20292;-48
2023/03/01 00:56:52;;;;;;;1999.90;999.90;;;-0.90;99.90;;;;;;5093027;28;20754;-50
2023/03/01 00:59:20;;;;;;;1804.83;999.90;;;-1.00;99.90;;;;;;5092727;28;20565;-48
2023/03/01 01:01:48;;;;;;;1999.90;999.90;;;-1.00;99.90;;;;;;5092273;28;20215;-49
2023/03/01 01:04:16;;;;;;;1897.17;999.90;;;-1.00;99.90;;;;;;5092561;28;20213;-49
2023/03/01 01:06:47;;;;;;;1999.90;999.90;;;-1.00;99.90;;;;;;5084406;28;20291;-49
2023/03/01 01:09:17;;;;;;;1922.80;999.90;;;-1.10;99.90;;;;;;5091838;28;20228;-50
2023/03/01 01:11:47;;;;;;;1819.90;999.90;;;-1.10;99.90;;;;;;5092153;28;20260;-50
2023/03/01 01:14:16;;;;;;;1726.67;999.90;;;-1.00;99.90;;;;;;5092358;28;20601;-49
2023/03/01 01:16:44;;;;;;;1785.10;999.90;;;-1.10;99.90;;;;;;5092354;28;20300;-54
2023/03/01 01:19:13;;;;;;;1605.33;999.90;;;-1.00;99.90;;;;;;5089305;28;20242;-52
2023/03/01 01:21:42;;;;;;;1678.33;999.90;;;-1.00;99.90;;;;;;5092238;28;20674;-52
2023/03/01 01:24:12;;;;;;;1698.00;999.90;;;-1.00;99.90;;;;;;5072339;28;20297;-52
2023/03/01 01:26:41;;;;;;;1512.93;999.90;;;-1.10;99.90;;;;;;5078102;28;20207;-52
2023/03/01 01:29:10;;;;;;;1469.03;999.90;;;-1.10;99.90;;;;;;5092395;28;20324;-53
2023/03/01 01:31:41;;;;;;;1551.17;999.90;;;-1.10;99.90;;;;;;5079434;28;20207;-52
2023/03/01 01:34:13;;;;;;;1999.90;999.90;;;-1.10;99.90;;;;;;5092572;28;20201;-52
2023/03/01 01:36:41;;;;;;;1995.03;999.90;;;-1.20;99.90;;;;;;5080325;28;20289;-54
2023/03/01 01:39:12;;;;;;;1999.90;999.90;;;-1.10;99.90;;;;;;5092040;28;20337;-52
2023/03/01 01:41:42;;;;;;;1865.53;999.90;;;-1.10;99.90;;;;;;5085008;28;20248;-52
2023/03/01 01:44:14;;;;;;;1718.10;999.90;;;-1.10;99.90;;;;;;5071289;28;20205;-52
2023/03/01 01:46:44;;;;;;;1999.90;999.90;;;-1.10;99.90;;;;;;5071868;28;20806;-53
2023/03/01 01:49:23;;;;;;;1809.20;999.90;;;-1.10;99.90;;;;;;5071552;28;20237;-53
2023/03/01 01:52:08;;;;;;;1801.27;999.90;;;-1.10;99.90;;;;;;5071733;28;20299;-52
2023/03/01 01:54:42;;;;;;;1999.90;999.90;;;-1.20;99.90;;;;;;5071612;28;20200;-51
2023/03/01 01:57:15;;;;;;;1410.83;999.90;;;-1.20;99.90;;;;;;5071203;28;20299;-52
2023/03/01 01:59:50;;;;;;;1842.93;999.90;;;-1.20;99.90;;;;;;5070374;28;20229;-52
2023/03/01 02:02:18;;;;;;;1849.23;999.90;;;-1.20;99.90;;;;;;5071285;28;20894;-52
2023/03/01 02:04:48;;;;;;;1853.83;999.90;;;-1.30;99.90;;;;;;5071308;28;20205;-52
2023/03/01 02:07:18;;;;;;;1999.90;999.90;;;-1.30;99.90;;;;;;5071395;28;20213;-52
2023/03/01 02:09:49;;;;;;;1999.90;999.90;;;-1.40;99.90;;;;;;5071464;28;20230;-52
2023/03/01 02:12:21;;;;;;;1999.90;999.90;;;-1.40;99.90;;;;;;5070287;28;20241;-51
2023/03/01 02:14:49;;;;;;;1999.90;999.90;;;-1.40;99.90;;;;;;5071290;28;20220;-52
2023/03/01 02:17:19;;;;;;;1999.90;999.90;;;-1.40;99.90;;;;;;5071105;28;20851;-53
2023/03/01 02:20:00;;;;;;;1999.90;999.90;;;-1.40;99.90;;;;;;5070612;28;20225;-51
2023/03/01 02:22:32;;;;;;;1999.90;999.90;;;-1.50;99.90;;;;;;5071099;28;20204;-52
2023/03/01 02:25:13;;;;;;;1922.03;999.90;;;-1.60;99.90;;;;;;5071025;28;20297;-52
2023/03/01 02:27:54;;;;;;;1999.90;999.90;;;-1.60;99.90;;;;;;5070568;28;20296;-52
2023/03/01 02:30:25;;;;;;;1999.90;999.90;;;-1.60;99.90;;;;;;5070655;28;20320;-51
2023/03/01 02:33:02;;;;;;;1990.93;999.90;;;-1.60;99.90;;;;;;5070977;28;20316;-52
2023/03/01 02:35:33;;;;;;;1999.90;999.90;;;-1.50;99.90;;;;;;5070687;28;20232;-52
2023/03/01 02:38:02;;;;;;;1884.40;999.90;;;-1.50;99.90;;;;;;5070613;28;20264;-52
2023/03/01 02:40:32;;;;;;;1999.90;999.90;;;-1.50;99.90;;;;;;5070502;28;20225;-53
2023/03/01 02:43:00;;;;;;;1999.90;999.90;;;-1.50;99.90;;;;;;5070239;28;20300;-53
2023/03/01 02:45:29;;;;;;;1999.90;999.90;;;-1.50;99.90;;;;;;5070731;28;20323;-53
2023/03/01 02:47:58;;;;;;;1999.90;999.90;;;-1.60;99.90;;;;;;5070652;28;20221;-52
2023/03/01 02:50:52;;;;;;;1999.90;999.90;;;-1.60;99.90;;;;;;5068595;28;20217;-52
2023/03/01 02:53:28;;;;;;;1999.90;999.90;;;-1.60;99.90;;;;;;5070019;28;20753;-51
2023/03/01 02:55:56;;;;;;;1999.90;999.90;;;-1.70;99.90;;;;;;5070368;28;20304;-53
2023/03/01 02:58:24;;;;;;;1999.90;999.90;;;-1.70;99.90;;;;;;5070136;28;20288;-53
2023/03/01 03:00:54;;;;;;;1878.60;999.90;;;-1.70;99.90;;;;;;5070067;28;20232;-53
2023/03/01 03:03:22;;;;;;;1999.90;999.90;;;-1.70;99.90;;;;;;5069884;28;20270;-52
2023/03/01 03:05:50;;;;;;;1999.90;999.90;;;-1.70;99.90;;;;;;5069832;28;20790;-52
2023/03/01 03:08:23;;;;;;;1999.90;999.90;;;-1.70;99.90;;;;;;5069995;28;20240;-52
2023/03/01 03:10:52;;;;;;;1999.90;999.90;;;-1.70;99.90;;;;;;5070089;28;20223;-52
2023/03/01 03:13:21;;;;;;;1999.90;999.90;;;-1.70;99.90;;;;;;5069644;28;20662;-52
2023/03/01 03:15:49;;;;;;;1999.90;999.90;;;-1.70;99.90;;;;;;5069646;28;20201;-52
2023/03/01 03:18:19;;;;;;;1999.90;999.90;;;-1.70;99.90;;;;;;5069824;28;20234;-53
2023/03/01 03:20:52;;;;;;;1999.90;999.90;;;-1.70;99.90;;;;;;5069117;28;20769;-52
2023/03/01 03:23:21;;;;;;;1999.90;999.90;;;-1.70;99.90;;;;;;5069288;28;20316;-51
2023/03/01 03:25:50;;;;;;;1999.90;999.90;;;-1.70;99.90;;;;;;5069593;28;20682;-52
2023/03/01 03:28:18;;;;;;;1999.90;999.90;;;-1.80;99.90;;;;;;5069248;28;20708;-52
2023/03/01 03:30:47;;;;;;;1999.90;999.90;;;-1.70;99.90;;;;;;5069741;28;20221;-53
2023/03/01 03:33:15;;;;;;;1999.90;999.90;;;-1.70;99.90;;;;;;5069212;28;20286;-52
2023/03/01 03:35:46;;;;;;;1999.90;999.90;;;-1.80;99.90;;;;;;5069863;28;20219;-52
2023/03/01 03:38:17;;;;;;;1999.90;999.90;;;-1.80;99.90;;;;;;5069737;28;20287;-52
2023/03/01 03:40:47;;;;;;;1999.90;999.90;;;-1.80;99.90;;;;;;5069145;28;20240;-51
2023/03/01 03:43:17;;;;;;;1999.90;999.90;;;-1.80;99.90;;;;;;5069408;28;20211;-52
2023/03/01 03:45:46;;;;;;;1999.90;999.90;;;-1.80;99.90;;;;;;5069542;28;20689;-52
2023/03/01 03:48:14;;;;;;;1999.90;999.90;;;-1.80;99.90;;;;;;5069478;28;20211;-50
2023/03/01 03:50:49;;;;;;;1999.90;999.90;;;-1.80;99.90;;;;;;5069192;28;20346;-52
2023/03/01 03:53:17;;;;;;;1999.90;999.90;;;-1.90;99.90;;;;;;5069152;28;20211;-52
2023/03/01 03:55:48;;;;;;;1999.90;999.90;;;-1.90;99.90;;;;;;5069437;28;20299;-52
2023/03/01 03:58:19;;;;;;;1999.90;999.90;;;-1.90;99.90;;;;;;5069376;28;20749;-53
2023/03/01 04:00:49;;;;;;;1999.90;999.90;;;-1.90;99.90;;;;;;5069406;28;20248;-52
2023/03/01 04:03:19;;;;;;;1999.90;999.90;;;-1.90;99.90;;;;;;5069537;28;20209;-52
2023/03/01 04:05:50;;;;;;;1577.17;999.90;;;-1.90;99.90;;;;;;5068750;28;20224;-52
2023/03/01 04:08:19;;;;;;;1988.60;999.90;;;-2.00;99.90;;;;;;5069599;28;20292;-53
2023/03/01 04:10:49;;;;;;;1999.90;999.90;;;-2.00;99.90;;;;;;5068925;28;20252;-52
2023/03/01 04:13:20;;;;;;;1999.90;999.90;;;-2.10;99.90;;;;;;5068631;28;20210;-53
2023/03/01 04:15:50;;;;;;;1999.90;999.90;;;-2.10;99.90;;;;;;5069273;28;20258;-52
2023/03/01 04:18:19;;;;;;;1999.90;999.90;;;-2.10;99.90;;;;;;5069325;28;20295;-53
2023/03/01 04:20:49;;;;;;;1999.90;999.90;;;-2.20;99.90;;;;;;5087858;28;20234;-53
2023/03/01 04:23:21;;;;;;;1999.90;999.90;;;-2.20;99.90;;;;;;5089513;28;20307;-52
2023/03/01 04:25:53;;;;;;;1999.90;999.90;;;-2.20;99.90;;;;;;5088504;28;20657;-53
2023/03/01 04:28:21;;;;;;;1999.90;999.90;;;-2.20;99.90;;;;;;5089342;28;20211;-53
2023/03/01 04:30:49;;;;;;;1999.90;999.90;;;-2.10;99.90;;;;;;5089379;28;20665;-53
2023/03/01 04:33:18;;;;;;;1999.90;999.90;;;-2.10;99.90;;;;;;5089303;28;20318;-53
2023/03/01 04:35:49;;;;;;;1999.90;999.90;;;-2.10;99.90;;;;;;5089165;28;20667;-53
2023/03/01 04:38:20;;;;;;;1999.90;999.90;;;-2.10;99.90;;;;;;5089167;28;20575;-52
2023/03/01 04:40:49;;;;;;;1999.90;999.90;;;-2.10;99.90;;;;;;5089374;28;20598;-52
2023/03/01 04:43:17;;;;;;;1999.90;999.90;;;-2.20;99.90;;;;;;5089313;28;20211;-52
2023/03/01 04:45:45;;;;;;;1999.90;999.90;;;-2.20;99.90;;;;;;5089263;28;20635;-52
2023/03/01 04:48:13;;;;;;;1999.90;999.90;;;-2.20;99.90;;;;;;5089329;28;20227;-52
2023/03/01 04:50:41;;;;;;;1999.90;999.90;;;-2.20;99.90;;;;;;5088706;28;20307;-52
2023/03/01 04:53:09;;;;;;;1999.90;999.90;;;-2.20;99.90;;;;;;5089175;28;20251;-52
2023/03/01 04:55:38;;;;;;;1999.90;999.90;;;-2.20;99.90;;;;;;5088865;28;20238;-52
2023/03/01 04:58:06;;;;;;;1999.90;999.90;;;-2.20;99.90;;;;;;5089269;28;20212;-53
2023/03/01 05:00:34;;;;;;;1999.90;999.90;;;-2.20;99.90;;;;;;5088570;28;20997;-53
2023/03/01 05:03:02;;;;;;;1999.90;999.90;;;-2.20;99.90;;;;;;5089181;28;20274;-52
2023/03/01 05:05:32;;;;;;;1999.90;999.90;;;-2.20;99.90;;;;;;5088862;28;20200;-53
2023/03/01 05:08:02;;;;;;;1999.90;999.90;;;-2.20;99.90;;;;;;5089131;28;20208;-52
2023/03/01 05:10:33;;;;;;;1861.57;999.90;;;-2.20;99.90;;;;;;5088948;28;20216;-51
2023/03/01 05:13:04;;;;;;;1992.40;999.90;;;-2.20;99.90;;;;;;5089195;28;20259;-53
2023/03/01 05:15:32;;;;;;;1999.90;999.90;;;-2.20;99.90;;;;;;5092322;28;20292;-51
2023/03/01 05:18:01;;;;;;;1999.90;999.90;;;-2.20;99.90;;;;;;5092672;28;20779;-53
2023/03/01 05:20:31;;;;;;;1999.90;999.90;;;-2.30;99.90;;;;;;5092051;28;20232;-52
2023/03/01 05:23:04;;;;;;;1646.43;999.90;;;-2.30;99.90;;;;;;5092906;28;20878;-52
2023/03/01 05:25:34;;;;;;;1877.97;999.90;;;-2.40;99.90;;;;;;5092761;28;20208;-52
2023/03/01 05:28:04;;;;;;;1749.87;999.90;;;-2.40;99.90;;;;;;5078935;28;20291;-51
2023/03/01 05:30:33;;;;;;;1999.90;999.90;;;-2.30;99.90;;;;;;5092412;28;20753;-52
2023/03/01 05:33:02;;;;;;;1999.90;999.90;;;-2.30;99.90;;;;;;5092679;28;20287;-53
2023/03/01 05:35:32;;;;;;;1982.23;999.90;;;-2.30;99.90;;;;;;5092263;28;20744;-53
2023/03/01 05:38:00;;;;;;;1744.67;999.90;;;-2.30;99.90;;;;;;5091979;28;20233;-50
2023/03/01 05:40:29;;;;;;;1999.90;999.90;;;-2.30;99.90;;;;;;5092234;28;20264;-52
2023/03/01 05:42:57;;;;;;;1999.90;999.90;;;-2.40;99.90;;;;;;5091504;28;20204;-52
2023/03/01 05:45:28;;;;;;;1982.50;999.90;;;-2.40;99.90;;;;;;5092273;28;20296;-52
2023/03/01 05:47:56;;;;;;;1823.57;999.90;;;-2.40;99.90;;;;;;5091817;28;20215;-53
2023/03/01 05:50:26;;;;;;;1999.90;999.90;;;-2.40;99.90;;;;;;5091555;28;20320;-52
2023/03/01 05:52:59;;;;;;;1999.90;999.90;;;-2.40;99.90;;;;;;5092145;28;20200;-52
2023/03/01 05:55:28;;;;;;;1999.90;999.90;;;-2.40;99.90;;;;;;5091559;28;20736;-53
2023/03/01 05:57:58;;;;;;;1999.90;999.90;;;-2.40;99.90;;;;;;5091718;28;20226;-52
2023/03/01 06:00:30;;;;;;;1999.90;999.90;;;-2.40;99.90;;;;;;5091590;28;20312;-52
2023/03/01 06:02:59;;;;;;;1999.90;999.90;;;-2.50;99.90;;;;;;5091905;28;20207;-53
2023/03/01 06:05:28;;;;;;;1999.90;999.90;;;-2.40;99.90;;;;;;5091666;28;20295;-51
2023/03/01 06:07:59;;;;;;;1999.90;999.90;;;-2.40;99.90;;;;;;5091638;28;20703;-52
2023/03/01 06:10:27;;;;;;;1999.90;999.90;;;-2.40;99.90;;;;;;5091241;28;20339;-52
2023/03/01 06:12:55;;;;;;;1766.67;999.90;;;-2.40;99.90;;;;;;5091380;28;20641;-52
2023/03/01 06:15:23;;;;;;;1999.90;999.90;;;-2.30;99.90;;;;;;5091174;28;20644;-53
2023/03/01 06:17:56;;;;;;;1999.90;999.90;;;-2.30;99.90;;;;;;5091424;28;20661;-52
2023/03/01 06:20:29;;;;;;;1956.50;999.90;;;-2.40;99.90;;;;;;5091173;28;20246;-53
2023/03/01 06:22:57;;;;;;;1999.90;999.90;;;-2.40;99.90;;;;;;5078067;28;20207;-52
2023/03/01 06:25:27;;;;;;;1999.90;999.90;;;-2.40;99.90;;;;;;5090370;28;20216;-52
2023/03/01 06:27:55;;;;;;;1999.90;999.90;;;-2.30;99.90;;;;;;5091196;28;20491;-54
2023/03/01 06:30:25;;;;;;;1830.83;999.90;;;-2.30;99.90;;;;;;5091424;28;20264;-53
2023/03/01 06:33:01;;;;;;;1999.90;999.90;;;-2.30;99.90;;;;;;5091312;28;20239;-53
2023/03/01 06:35:30;;;;;;;1999.90;999.90;;;-2.40;99.90;;;;;;5091267;28;20204;-52
2023/03/01 06:37:59;;;;;;;1999.90;999.90;;;-2.30;99.90;;;;;;5091016;28;20207;-51
2023/03/01 06:40:27;;;;;;;1999.90;999.90;;;-2.30;99.90;;;;;;5091011;28;20282;-52
2023/03/01 06:42:56;;;;;;;1482.83;999.90;;;-2.30;99.90;;;;;;5090639;28;20307;-53
2023/03/01 06:45:24;;;;;;;1999.90;999.90;;;-2.30;99.90;;;;;;5090728;28;20208;-53
2023/03/01 06:47:53;;;;;;;1999.90;999.90;;;-2.30;99.90;;;;;;5073055;28;20235;-52
2023/03/01 06:50:21;;;;;;;1999.90;999.90;;;-2.30;99.90;;;;;;5078204;28;20220;-51
2023/03/01 06:52:56;;;;;;;1999.90;999.90;;;-2.20;99.90;;;;;;5090513;28;20253;-52
2023/03/01 06:55:24;;;;;;;1344.40;999.90;;;-1.90;99.90;;;;;;5090484;28;20203;-53
2023/03/01 06:57:55;;;;;;;1999.90;993.23;;;-1.50;99.90;;;;;;5089735;28;20288;-53
2023/03/01 07:00:25;;;;;;;1440.57;994.80;;;-1.30;99.90;;;;;;5090112;28;20232;-53
2023/03/01 07:02:55;;;;;;;1999.90;999.90;;;-1.20;99.90;;;;;;5090407;28;20597;-51
2023/03/01 07:05:23;;;;;;;1996.23;999.90;;;-1.00;99.90;;;;;;5090760;28;20249;-53
2023/03/01 07:07:51;;;;;;;1389.30;999.90;;;-0.90;99.90;;;;;;5090200;28;20200;-54
2023/03/01 07:10:19;;;;;;;1999.90;999.90;;;-0.90;99.90;;;;;;5090032;28;20315;-53
2023/03/01 07:12:47;;;;;;;1508.90;999.90;;;-0.90;99.90;;;;;;5090338;28;20305;-53
2023/03/01 07:15:15;;;;;;;1999.90;999.90;;;-0.80;99.90;;;;;;5090321;28;20258;-53
2023/03/01 07:17:44;;;;;;;1999.90;999.90;;;-0.60;99.90;;;;;;5090624;28;20207;-52
2023/03/01 07:20:14;;;;;;;1503.83;999.90;;;-0.40;99.90;;;;;;5090339;28;20305;-51
2023/03/01 07:22:42;;;;;;;1999.90;999.90;;;-0.20;99.90;;;;;;5089752;28;20226;-53
2023/03/01 07:25:11;;;;;;;1999.90;999.90;;;0.00;99.90;;;;;;5090150;28;20243;-52
2023/03/01 07:27:39;;;;;;;1620.87;999.90;;;0.20;99.90;;;;;;5089832;28;20668;-50
2023/03/01 07:30:08;;;;;;;1999.90;999.90;;;0.40;99.90;;;;;;5089775;28;20315;-51
2023/03/01 07:32:36;;;;;;;1974.27;999.90;;;0.50;99.90;;;;;;5091338;28;20740;-53
2023/03/01 07:35:04;;;;;;;1999.90;999.90;;;0.60;99.90;;;;;;5094439;28;20210;-54
2023/03/01 07:37:34;;;;;;;1999.90;999.90;;;0.80;99.90;;;;;;5088150;28;20688;-52
2023/03/01 07:40:02;;;;;;;1999.90;999.90;;;0.90;99.90;;;;;;5089239;28;20308;-53
2023/03/01 07:42:30;;;;;;;1999.90;999.90;;;1.00;99.90;;;;;;5089981;28;20231;-53
2023/03/01 07:44:58;;;;;;;1999.90;999.90;;;1.20;99.90;;;;;;5107768;28;20335;-53
2023/03/01 07:47:26;;;;;;;1999.90;999.90;;;1.40;99.90;;;;;;5100031;28;20197;-53
2023/03/01 07:49:54;;;;;;;1999.90;999.90;;;1.50;99.90;;;;;;5102029;28;20272;-53
2023/03/01 07:52:22;;;;;;;1999.90;999.90;;;1.70;99.90;;;;;;5089806;28;20720;-52
2023/03/01 07:54:51;;;;;;;1999.90;999.90;;;1.80;99.90;;;;;;5089186;28;20297;-53
2023/03/01 07:57:19;;;;;;;1999.90;999.90;;;1.90;99.90;;;;;;5089864;28;20639;-53
2023/03/01 07:59:47;;;;;;;1999.90;999.90;;;2.10;99.90;;;;;;5089304;28;20260;-52
2023/03/01 08:02:15;;;;;;;1999.90;999.90;;;2.20;99.90;;;;;;5089666;28;20307;-53
2023/03/01 08:04:43;;;;;;;1999.90;999.90;;;2.00;99.90;;;;;;5089710;28;20246;-52
2023/03/01 08:07:11;;;;;;;1691.23;999.90;;;2.00;99.90;;;;;;5089426;28;20208;-53
2023/03/01 08:09:39;;;;;;;1984.63;999.90;;;1.90;99.90;;;;;;5089176;28;20316;-52
2023/03/01 08:12:09;;;;;;;1643.00;999.90;;;1.80;99.90;;;;;;5089304;28;20308;-51
2023/03/01 08:14:37;;;;;;;1999.90;999.90;;;1.80;99.90;;;;;;5089585;28;20315;-52
2023/03/01 08:17:05;;;;;;;1682.43;999.90;;;1.80;99.90;;;;;;5089773;28;20291;-53
2023/03/01 08:19:34;;;;;;;1999.90;999.90;;;1.80;99.90;;;;;;5089119;28;20747;-53
2023/03/01 08:22:02;;;;;;;1796.83;999.90;;;1.90;99.90;;;;;;5089175;28;20328;-52
2023/03/01 08:24:31;;;;;;;1757.07;999.90;;;1.90;99.90;;;;;;5089048;28;20573;-54
2023/03/01 08:26:58;;;;;;;1999.90;999.90;;;2.00;99.90;;;;;;5089623;28;20200;-53
2023/03/01 08:29:28;;;;;;;1577.87;999.90;;;2.10;99.90;;;;;;5089214;28;20224;-52
2023/03/01 08:31:56;;;;;;;1668.63;999.90;;;2.00;99.90;;;;;;5078017;28;20204;-52
2023/03/01 08:34:24;;;;;;;1832.40;999.90;;;2.00;99.90;;;;;;5084459;28;20223;-53
2023/03/01 08:36:52;;;;;;;1999.90;999.90;;;2.10;99.90;;;;;;5089173;28;20204;-53
2023/03/01 08:39:21;;;;;;;1473.20;999.90;;;2.10;99.90;;;;;;5088759;28;20784;-52
2023/03/01 08:41:49;;;;;;;1999.90;999.90;;;2.10;99.90;;;;;;5088749;28;20215;-52
2023/03/01 08:44:17;;;;;;;1482.77;999.90;;;2.20;99.90;;;;;;5088869;28;21071;-54
2023/03/01 08:46:47;;;;;;;1999.90;999.90;;;2.30;99.90;;;;;;5085331;28;20237;-53
2023/03/01 08:49:17;;;;;;;1814.67;999.90;;;2.20;99.90;;;;;;5076854;28;20220;-52
2023/03/01 08:51:46;;;;;;;1999.90;999.90;;;2.20;99.90;;;;;;5090101;28;20232;-52
2023/03/01 08:54:15;;;;;;;1794.30;999.90;;;2.20;99.90;;;;;;5086528;28;20211;-53
2023/03/01 08:56:44;;;;;;;1999.90;999.90;;;2.30;99.90;;;;;;5092784;28;20241;-53
2023/03/01 08:59:13;;;;;;;1999.90;999.90;;;2.40;99.90;;;;;;5092526;28;20221;-53
2023/03/01 09:01:43;;;;;;;1999.90;999.90;;;2.40;99.90;;;;;;5092255;28;20670;-52
2023/03/01 09:04:12;;;;;;;1981.20;999.90;;;2.40;99.90;;;;;;5078653;28;20231;-48
2023/03/01 09:06:41;;;;;;;1999.90;999.90;;;2.50;99.90;;;;;;5092380;28;20295;-50
2023/03/01 09:09:15;;;;;;;1999.90;999.90;;;2.40;99.90;;;;;;5092509;28;20704;-50
2023/03/01 09:11:45;;;;;;;1999.90;999.90;;;2.50;99.90;;;;;;5084586;28;20246;-49
2023/03/01 09:14:15;;;;;;;1999.90;999.90;;;2.50;99.90;;;;;;5092490;28;20207;-49
2023/03/01 09:16:43;;;;;;;1999.90;999.90;;;2.60;99.90;;;;;;5092476;28;20737;-52
2023/03/01 09:19:12;;;;;;;1822.10;999.90;;;2.50;99.90;;;;;;5092319;28;20584;-51
2023/03/01 09:21:41;;;;;;;1972.07;999.90;;;2.50;99.90;;;;;;5092519;28;20584;-50
2023/03/01 09:24:15;;;;;;;1999.90;999.90;;;2.60;99.90;;;;;;5091690;28;20237;-50
2023/03/01 09:26:46;;;;;;;1999.90;999.90;;;2.70;99.90;;;;;;5092742;28;20578;-50
2023/03/01 09:29:16;;;;;;;1999.90;999.90;;;2.70;99.90;;;;;;5092132;28;20234;-51
2023/03/01 09:31:44;;;;;;;1999.90;999.90;;;2.70;99.90;;;;;;5092412;28;20273;-49
2023/03/01 09:34:15;;;;;;;1999.90;999.90;;;2.60;99.90;;;;;;5092452;28;20629;-49
2023/03/01 09:36:43;;;;;;;1999.90;999.90;;;2.70;99.90;;;;;;5092285;28;20204;-50
2023/03/01 09:39:11;;;;;;;1999.90;999.90;;;2.80;99.90;;;;;;5081463;28;20256;-50
2023/03/01 09:41:47;;;;;;;1999.90;999.90;;;2.90;99.90;;;;;;5078193;28;20291;-50
2023/03/01 09:44:24;;;;;;;1999.90;999.90;;;2.80;99.90;;;;;;5092042;28;20229;-49
2023/03/01 09:46:53;;;;;;;1999.90;999.90;;;2.80;99.90;;;;;;5079563;28;20232;-52
2023/03/01 09:49:26;;;;;;;1999.90;999.90;;;2.90;99.90;;;;;;5091660;28;20307;-52
2023/03/01 09:52:01;;;;;;;1999.90;999.90;;;2.90;99.90;;;;;;5091964;28;20228;-52
2023/03/01 09:54:29;;;;;;;1834.73;999.90;;;2.80;99.90;;;;;;5092180;28;20299;-53
2023/03/01 09:57:15;;;;;;;1999.90;999.90;;;2.80;99.90;;;;;;5091409;28;20214;-52
2023/03/01 10:00:04;;;;;;;1999.90;999.90;;;2.90;99.90;;;;;;5075109;28;20232;-52
2023/03/01 10:02:40;;;;;;;1999.90;999.90;;;3.00;99.90;;;;;;5086861;28;20206;-53
2023/03/01 10:05:32;;;;;;;1999.90;999.90;;;3.00;99.90;;;;;;5078072;28;20270;-50
2023/03/01 10:08:21;;;;;;;1963.57;999.90;;;3.00;99.90;;;;;;5081140;28;20262;-51
2023/03/01 10:10:50;;;;;;;1854.80;999.90;;;3.00;99.90;;;;;;5088296;28;20311;-50
2023/03/01 10:13:24;;;;;;;1999.90;999.90;;;3.00;99.90;;;;;;5091537;28;20672;-51
2023/03/01 10:15:57;;;;;;;1999.90;999.90;;;3.20;99.90;;;;;;5091444;28;20652;-51
2023/03/01 10:18:28;;;;;;;1999.90;999.90;;;3.20;99.90;;;;;;5091488;28;20273;-50
2023/03/01 10:21:00;;;;;;;1999.90;999.90;;;3.10;99.90;;;;;;5091196;28;20844;-53
2023/03/01 10:23:32;;;;;;;1999.90;999.90;;;3.10;99.90;;;;;;5091596;28;20290;-54
2023/03/01 10:26:13;;;;;;;1999.90;999.90;;;3.20;99.90;;;;;;5091302;28;20201;-53
2023/03/01 10:28:50;;;;;;;1999.90;999.90;;;3.20;99.90;;;;;;5090869;28;20292;-53
2023/03/01 10:31:22;;;;;;;1999.90;999.90;;;3.20;99.90;;;;;;5091253;28;20220;-53
2023/03/01 10:33:54;;;;;;;1999.90;999.90;;;3.20;99.90;;;;;;5090978;28;20253;-53
2023/03/01 10:36:24;;;;;;;1999.90;999.90;;;3.30;99.90;;;;;;5090745;28;20214;-53
2023/03/01 10:38:54;;;;;;;1999.90;999.90;;;3.40;99.90;;;;;;5082550;28;20260;-53
2023/03/01 10:41:24;;;;;;;1999.90;999.90;;;3.40;99.90;;;;;;5085495;28;20644;-51
2023/03/01 10:43:54;;;;;;;1999.90;999.90;;;3.50;99.90;;;;;;5091163;28;20229;-53
2023/03/01 10:46:27;;;;;;;1999.90;999.90;;;3.50;99.90;;;;;;5090957;28;20288;-51
2023/03/01 10:49:15;;;;;;;1999.90;999.90;;;3.50;99.90;;;;;;5077357;28;20238;-53
2023/03/01 10:51:46;;;;;;;1930.27;999.90;;;3.60;99.90;;;;;;5090439;28;20235;-53
2023/03/01 10:54:20;;;;;;;1999.90;999.90;;;3.50;99.90;;;;;;5090384;28;20809;-52
2023/03/01 10:56:50;;;;;;;1999.90;999.90;;;3.60;99.90;;;;;;5090825;28;20208;-53
2023/03/01 10:59:27;;;;;;;1528.43;999.90;;;3.60;99.90;;;;;;5090421;28;20311;-54
2023/03/01 11:02:17;;;;;;;1999.90;999.90;;;3.60;99.90;;;;;;5090835;28;20245;-53
2023/03/01 11:05:00;;;;;;;1999.90;999.90;;;3.70;99.90;;;;;;5082613;28;20255;-52
2023/03/01 11:07:30;;;;;;;1999.90;999.90;;;3.80;99.90;;;;;;5090188;28;20236;-52
2023/03/01 11:09:58;;;;;;;1999.90;999.90;;;3.90;99.90;;;;;;5090537;28;20343;-54
2023/03/01 11:12:29;;;;;;;1909.23;999.90;;;4.00;99.90;;;;;;5089408;28;20215;-53
2023/03/01 11:14:58;;;;;;;1847.67;999.90;;;3.90;99.90;;;;;;5090192;28;20223;-53
2023/03/01 11:17:29;;;;;;;1999.90;999.90;;;3.90;99.90;;;;;;5090470;28;20240;-52
2023/03/01 11:20:14;;;;;;;1999.90;999.90;;;3.90;99.90;;;;;;5089875;28;20226;-50
2023/03/01 11:22:49;;;;;;;1999.90;999.90;;;3.90;99.90;;;;;;5090297;28;20197;-49
2023/03/01 11:25:20;;;;;;;1999.90;999.90;;;4.10;99.90;;;;;;5089883;28;20219;-53
2023/03/01 11:27:48;;;;;;;1901.70;999.90;;;4.00;99.90;;;;;;5089415;28;20290;-53
2023/03/01 11:30:22;;;;;;;1999.90;999.90;;;4.10;99.90;;;;;;5089903;28;20269;-52
2023/03/01 11:33:01;;;;;;;1835.63;999.90;;;4.10;99.90;;;;;;5089792;28;20683;-53
2023/03/01 11:35:33;;;;;;;1999.90;999.90;;;4.10;99.90;;;;;;5089991;28;20211;-50
2023/03/01 11:38:13;;;;;;;1674.87;999.13;;;4.30;99.90;;;;;;5089780;28;20669;-50
2023/03/01 11:40:47;;;;;;;1567.53;999.90;;;4.10;99.90;;;;;;5089807;28;20746;-49
2023/03/01 11:43:21;;;;;;;1999.90;999.90;;;4.10;99.90;;;;;;5089923;28;20400;-49
2023/03/01 11:46:09;;;;;;;1999.90;999.90;;;4.20;99.90;;;;;;5090027;28;20230;-51
2023/03/01 11:48:54;;;;;;;1886.53;999.90;;;4.30;99.90;;;;;;5077448;28;20195;-50
2023/03/01 11:51:34;;;;;;;1999.90;999.90;;;4.40;99.90;;;;;;5089446;28;20213;-50
2023/03/01 11:54:14;;;;;;;1999.90;999.90;;;4.40;99.90;;;;;;5089889;28;20261;-50
2023/03/01 11:56:47;;;;;;;1999.90;999.90;;;4.50;99.90;;;;;;5089417;28;20232;-50
2023/03/01 11:59:52;;;;;;;1642.53;992.07;;;4.50;99.90;;;;;;5089293;28;20224;-51
2023/03/01 12:02:59;;;;;;;1999.90;999.90;;;4.60;99.90;;;;;;5083126;28;20206;-49
2023/03/01 12:05:58;;;;;;;1991.93;999.90;;;4.60;99.90;;;;;;5089456;28;20362;-50
2023/03/01 12:08:34;;;;;;;1999.90;999.90;;;4.60;99.90;;;;;;5073621;28;20200;-50
2023/03/01 12:11:13;;;;;;;1999.90;999.90;;;4.70;99.90;;;;;;5089541;28;20777;-49
2023/03/01 12:14:10;;;;;;;1999.90;999.90;;;4.60;99.90;;;;;;5088982;28;20654;-50
2023/03/01 12:16:58;;;;;;;1999.90;999.90;;;4.70;99.90;;;;;;5089505;28;20287;-49
2023/03/01 12:19:38;;;;;;;1999.90;999.90;;;4.70;99.90;;;;;;5089292;28;20220;-51
2023/03/01 12:22:26;;;;;;;1999.90;999.90;;;4.80;99.90;;;;;;5088989;28;20200;-50